Cape Byron Lighthouse, New South Wales

6:22 AM AEST on September 29, 2016 (GMT +1000)
Suffolk Park | | Change Station

Elev 33 ft 28.69 °S, 153.61 °E | Updated 14 seconds ago

Overcast
Overcast
67.8 °F
Feels Like 67.8 °F
N
0.2
Wind Variable Wind from NNW
Gusts 2.5 mph

Today
High -- | Low -- °F
--% Chance of Precip.
Yesterday
High -- | Low -- °F
Precip. -- in
Pressure 29.77 in
Visibility 6.2 miles
Clouds Overcast 12500 ft
Dew Point 67 °F
Humidity 98%
Rainfall 0.00 in
Snow Depth Not available.
5:26 AM 5:45 PM
Waning Crescent, 4% visible
METAR YLIS 282000Z AUTO 00000KT 9999 // OVC125 13/12 Q1008
Pressure 29.77 in
Visibility 6.2 miles
Clouds Overcast 12500 ft
Dew Point 67 °F
Humidity 98%
Rainfall 0.00 in
Snow Depth Not available.
5:26 AM 5:45 PM
Waning Crescent, 4% visible
METAR YLIS 282000Z AUTO 00000KT 9999 // OVC125 13/12 Q1008

10-Day Weather Forecast

Almanac

Astronomy

Sep. 29, 2016 Rise Set
Actual Time
Civil Twilight
Nautical Twilight
Astronomical Twilight
Moon
Length of Visible Light
Length of Day
Tomorrow will be .
, % of the Moon is Illuminated

Today's Extremes

Country Highs Country Lows

Community

WunderPhotos

Upload Photos

1,942,318 photos uploaded!

WunderBlog® & News

Nearby

Air Quality

  Air Quality AQ Index Pollutant
Not available.

Snow Depth

Station Depth Elevation

Earthquake Activity

City Distance Mag. Time & Date
Minimum magnitude displayed is 2.5.

Coastal Water Temperatures

Place Temperature

Stations

Nearby Weather Stations

Station Location Temp. Windchill Dew Point Humidity Wind Precip. Elev Updated Type